Terminal Aerodrome Forecast
Issued by NWS Northern Indiana

Home | Current Version | Previous Version | Text Only | Print | Product List | Glossary On
Versions: 1 2 3 4 5 6 7 8 9 10 11 12 13 14 15 16 17 18
000
FTUS43 KIWX 011720
TAFFWA
TAF
KFWA 011720Z 0118/0218 07003KT 6SM BR OVC006
     FM012000 04006KT P6SM OVC020
     FM020100 05008KT 4SM SHRA BR OVC015
     FM020300 05008KT 2SM -SHRA BR OVC007
     FM020800 02007KT 3SM BR OVC003
     FM021400 04008KT 5SM BR OVC008=

USA.gov is the U.S. government's official web portal to all federal, state and local government web resources and services.